Time;durP1;ratioP1;P1;durP2;ratioP2;P2;SDS_P1;SDS_P2;PMS_P1;PMS_P2;Temp;Humidity;BMP_temperature;BMP_pressure;BME280_temperature;BME280_humidity;BME280_pressure;Samples;Min_cycle;Max_cycle;Signal;HPM_P1;HPM_P2
2021/04/16 00:01:33;;;;;;;5.40;1.33;;;;;;;4.00;66.12;102497.63;5058520;28;20029;-45
2021/04/16 00:03:58;;;;;;;7.50;2.08;;;;;;;3.98;66.25;102493.47;5057493;28;20032;-45
2021/04/16 00:06:24;;;;;;;7.00;1.70;;;;;;;3.98;67.00;102501.44;5056160;28;20029;-46
2021/04/16 00:08:49;;;;;;;6.32;1.75;;;;;;;4.07;66.00;102503.91;5053810;28;20031;-47
2021/04/16 00:11:22;;;;;;;4.97;1.50;;;;;;;4.03;66.28;102507.91;5055202;28;20112;-47
2021/04/16 00:13:47;;;;;;;5.10;1.58;;;;;;;4.07;66.06;102497.78;5055550;28;20047;-46
2021/04/16 00:16:16;;;;;;;4.10;1.77;;;;;;;4.07;66.38;102500.44;5058008;28;20036;-46
2021/04/16 00:18:42;;;;;;;4.10;1.40;;;;;;;4.06;66.36;102496.13;5054856;28;20505;-46
2021/04/16 00:21:08;;;;;;;5.43;1.85;;;;;;;4.06;66.45;102498.78;5054434;28;20025;-48
2021/04/16 00:23:34;;;;;;;6.50;1.23;;;;;;;4.05;66.56;102494.47;5058248;28;20024;-46
2021/04/16 00:26:00;;;;;;;3.75;1.42;;;;;;;4.06;66.47;102490.81;5061203;28;20031;-46
2021/04/16 00:28:26;;;;;;;6.05;1.83;;;;;;;4.05;66.62;102499.78;5058855;28;20024;-46
2021/04/16 00:30:58;;;;;;;5.38;1.33;;;;;;;4.04;66.70;102492.81;5054850;28;20085;-46
2021/04/16 00:33:25;;;;;;;3.40;1.55;;;;;;;4.03;66.87;102491.16;5057839;28;20028;-46
2021/04/16 00:35:51;;;;;;;5.90;2.08;;;;;;;4.00;67.08;102483.53;5053488;28;20081;-45
2021/04/16 00:38:20;;;;;;;4.93;2.20;;;;;;;3.93;67.44;102481.50;5055401;28;20507;-46
2021/04/16 00:40:56;;;;;;;3.78;1.63;;;;;;;3.93;67.90;102484.16;5055676;28;20024;-46
2021/04/16 00:43:24;;;;;;;5.22;1.65;;;;;;;3.87;67.83;102474.19;5056091;28;20017;-46
2021/04/16 00:46:00;;;;;;;6.35;1.95;;;;;;;3.89;67.52;102469.56;5069557;28;20075;-46
2021/04/16 00:48:32;;;;;;;6.28;2.08;;;;;;;3.83;68.69;102475.53;5058695;28;20155;-46
2021/04/16 00:51:01;;;;;;;4.82;1.65;;;;;;;3.84;68.67;102476.34;5053573;28;20031;-46
2021/04/16 00:53:27;;;;;;;2.78;1.10;;;;;;;3.88;68.00;102475.84;5053211;28;20071;-46
2021/04/16 00:55:53;;;;;;;3.42;1.30;;;;;;;3.86;68.44;102477.03;5054511;28;20562;-45
2021/04/16 00:58:23;;;;;;;4.32;1.67;;;;;;;3.86;68.43;102474.38;5052402;28;20071;-46
2021/04/16 01:00:53;;;;;;;8.25;2.03;;;;;;;3.93;67.72;102473.53;5055862;28;20040;-46
2021/04/16 01:03:19;;;;;;;5.25;1.75;;;;;;;3.93;68.27;102470.88;5060205;28;20034;-46
2021/04/16 01:05:45;;;;;;;4.18;1.55;;;;;;;3.99;67.80;102473.91;5054810;28;20024;-47
2021/04/16 01:08:11;;;;;;;6.07;1.58;;;;;;;3.98;67.92;102470.44;5052775;28;20108;-46
2021/04/16 01:10:36;;;;;;;8.52;1.80;;;;;;;3.99;68.14;102468.59;5053219;28;20032;-45
2021/04/16 01:13:03;;;;;;;3.33;1.40;;;;;;;3.99;68.02;102472.09;5055190;28;20021;-46
2021/04/16 01:15:37;;;;;;;5.72;1.50;;;;;;;3.98;68.35;102470.44;5056253;28;20035;-46
2021/04/16 01:18:16;;;;;;;4.78;1.35;;;;;;;3.89;69.04;102466.91;5055518;28;20028;-46
2021/04/16 01:20:45;;;;;;;5.07;1.63;;;;;;;3.87;69.12;102468.06;5051380;28;20158;-46
2021/04/16 01:23:25;;;;;;;3.83;1.58;;;;;;;3.92;68.86;102469.22;5057636;28;20514;-46
2021/04/16 01:25:51;;;;;;;7.22;1.80;;;;;;;3.94;69.18;102466.41;5053511;28;20063;-46
2021/04/16 01:28:17;;;;;;;5.88;1.65;;;;;;;3.96;69.01;102461.81;5055809;28;20036;-46
2021/04/16 01:31:17;;;;;;;8.15;1.52;;;;;;;3.89;69.78;102472.22;5053317;28;20086;-46
2021/04/16 01:33:45;;;;;;;4.32;1.60;;;;;;;3.97;68.92;102460.81;5043822;28;20041;-47
2021/04/16 01:36:14;;;;;;;4.90;1.60;;;;;;;3.99;68.97;102464.13;5055379;28;20017;-46
2021/04/16 01:38:42;;;;;;;7.60;1.90;;;;;;;3.95;69.62;102465.47;5050692;28;20477;-46
2021/04/16 01:41:09;;;;;;;6.57;1.42;;;;;;;3.92;69.67;102466.59;5055124;28;20115;-47
2021/04/16 01:43:38;;;;;;;5.90;2.20;;;;;;;3.86;70.28;102456.63;5052585;28;20013;-46
2021/04/16 01:46:12;;;;;;;3.53;1.80;;;;;;;3.94;69.73;102461.13;5055258;28;20405;-46
2021/04/16 01:48:46;;;;;;;8.65;1.92;;;;;;;3.91;70.21;102456.97;5050554;28;20040;-46
2021/04/16 01:51:16;;;;;;;5.25;1.58;;;;;;;3.91;69.87;102448.19;5052675;28;21291;-46
2021/04/16 01:53:42;;;;;;;7.78;1.77;;;;;;;3.87;70.25;102450.34;5057969;28;20036;-46
2021/04/16 01:56:08;;;;;;;7.90;1.83;;;;;;;3.89;70.59;102444.88;5055161;28;20439;-46
2021/04/16 01:58:34;;;;;;;7.43;2.22;;;;;;;3.79;70.97;102442.38;5052909;28;20111;-48
2021/04/16 02:01:00;;;;;;;7.63;1.90;;;;;;;3.82;70.47;102449.16;5056638;28;20394;-46
2021/04/16 02:03:26;;;;;;;4.85;1.42;;;;;;;3.78;70.78;102442.53;5059502;28;20024;-46
2021/04/16 02:05:52;;;;;;;10.32;1.65;;;;;;;3.69;71.06;102438.19;5059694;28;20032;-46
2021/04/16 02:08:19;;;;;;;5.15;1.98;;;;;;;3.67;70.88;102443.66;5053825;28;20029;-46
2021/04/16 02:10:45;;;;;;;7.72;1.77;;;;;;;3.60;71.32;102440.84;5060087;28;20513;-45
2021/04/16 02:13:11;;;;;;;9.32;2.28;;;;;;;3.60;71.51;102445.31;5054913;28;20108;-46
2021/04/16 02:15:37;;;;;;;8.82;2.35;;;;;;;3.57;72.12;102441.13;5057042;28;22229;-46
2021/04/16 02:18:04;;;;;;;6.47;1.90;;;;;;;3.61;71.55;102437.19;5057964;28;20059;-47
2021/04/16 02:20:30;;;;;;;11.55;2.20;;;;;;;3.51;72.65;102435.66;5057534;28;20807;-46
2021/04/16 02:22:56;;;;;;;4.63;2.00;;;;;;;3.48;72.00;102434.16;5054588;28;20032;-46
2021/04/16 02:25:22;;;;;;;6.53;2.55;;;;;;;3.36;73.15;102434.59;5054452;28;20372;-46
2021/04/16 02:27:48;;;;;;;7.55;3.05;;;;;;;3.32;72.98;102437.56;5058146;28;20590;-45
2021/04/16 02:30:19;;;;;;;7.75;2.22;;;;;;;3.24;73.78;102434.91;5058102;28;20017;-46
2021/04/16 02:32:45;;;;;;;8.43;2.78;;;;;;;3.36;72.92;102437.25;5060129;28;20051;-46
2021/04/16 02:35:11;;;;;;;8.52;2.95;;;;;;;3.32;72.92;102429.63;5056816;28;20191;-46
2021/04/16 02:37:37;;;;;;;11.75;2.70;;;;;;;3.30;73.44;102439.53;5053744;28;20123;-45
2021/04/16 02:40:05;;;;;;;6.15;3.03;;;;;;;3.29;73.65;102437.06;5055869;28;20030;-46
2021/04/16 02:42:30;;;;;;;9.05;3.33;;;;;;;3.33;73.04;102431.28;5052805;28;20451;-47
2021/04/16 02:44:56;;;;;;;8.95;2.53;;;;;;;3.32;73.64;102437.56;5058579;28;20027;-45
2021/04/16 02:47:21;;;;;;;7.28;2.58;;;;;;;3.29;73.82;102437.88;5054769;28;20443;-46
2021/04/16 02:49:47;;;;;;;9.02;2.38;;;;;;;3.35;73.29;102431.13;5053310;28;20034;-46
2021/04/16 02:52:13;;;;;;;4.40;2.10;;;;;;;3.27;74.47;102431.09;5057161;28;20020;-45
2021/04/16 02:54:38;;;;;;;4.20;1.85;;;;;;;3.33;73.78;102433.09;5057699;28;20042;-45
2021/04/16 02:57:04;;;;;;;7.72;2.25;;;;;;;3.36;73.63;102437.25;5056432;28;20483;-46
2021/04/16 02:59:30;;;;;;;3.92;1.77;;;;;;;3.39;73.93;102435.09;5055761;28;20056;-45
2021/04/16 03:01:57;;;;;;;8.00;2.08;;;;;;;3.44;73.35;102432.81;5060078;28;20025;-45
2021/04/16 03:04:22;;;;;;;6.22;1.55;;;;;;;3.48;72.99;102434.16;5052760;28;20025;-46
2021/04/16 03:06:48;;;;;;;5.03;1.92;;;;;;;3.50;73.13;102429.53;5055152;28;20055;-46
2021/04/16 03:09:14;;;;;;;4.15;2.00;;;;;;;3.54;72.95;102432.66;5054531;28;20031;-46
2021/04/16 03:11:39;;;;;;;6.88;2.00;;;;;;;3.57;73.18;102424.41;5053351;28;20112;-46
2021/04/16 03:14:05;;;;;;;9.00;2.00;;;;;;;3.55;73.36;102429.84;5052040;28;20033;-46
2021/04/16 03:16:32;;;;;;;5.72;1.92;;;;;;;3.54;73.86;102430.03;5055945;28;20059;-46
2021/04/16 03:19:00;;;;;;;5.93;1.88;;;;;;;3.58;73.62;102426.88;5056216;28;20068;-48
2021/04/16 03:21:27;;;;;;;8.40;1.70;;;;;;;3.60;73.36;102429.41;5051548;28;20112;-46
2021/04/16 03:23:52;;;;;;;4.97;1.70;;;;;;;3.53;74.12;102429.19;5053154;28;20652;-46
2021/04/16 03:26:19;;;;;;;4.93;1.83;;;;;;;3.60;73.50;102435.53;5052173;28;20074;-45
2021/04/16 03:28:45;;;;;;;7.78;2.50;;;;;;;3.54;74.08;102432.66;5056822;28;20032;-46
2021/04/16 03:31:11;;;;;;;7.43;1.95;;;;;;;3.60;73.76;102429.41;5053928;28;20094;-46
2021/04/16 03:33:36;;;;;;;6.95;1.70;;;;;;;3.57;73.89;102435.00;5050632;28;20131;-46
2021/04/16 03:36:02;;;;;;;5.78;1.92;;;;;;;3.59;73.34;102433.88;5056124;28;20108;-46
2021/04/16 03:38:28;;;;;;;5.25;1.73;;;;;;;3.58;73.77;102434.00;5053400;28;20139;-46
2021/04/16 03:40:53;;;;;;;8.90;1.85;;;;;;;3.52;74.01;102437.31;5056185;28;20113;-46
2021/04/16 03:43:19;;;;;;;12.60;1.95;;;;;;;3.49;74.01;102437.63;5053854;28;20615;-46
2021/04/16 03:45:44;;;;;;;7.38;1.88;;;;;;;3.49;73.89;102438.47;5056308;28;20023;-46
2021/04/16 03:48:10;;;;;;;6.30;1.60;;;;;;;3.47;74.17;102440.44;5053402;28;20495;-45
2021/04/16 03:50:37;;;;;;;4.38;1.55;;;;;;;3.52;73.81;102442.59;5050917;28;20112;-45
2021/04/16 03:53:05;;;;;;;6.50;1.83;;;;;;;3.47;74.15;102444.91;5054278;28;20021;-45
2021/04/16 03:55:33;;;;;;;8.10;1.60;;;;;;;3.51;74.14;102439.13;5050675;28;20070;-46
2021/04/16 03:57:59;;;;;;;8.25;1.50;;;;;;;3.61;73.32;102442.50;5053304;28;20033;-46
2021/04/16 04:00:30;;;;;;;4.90;1.30;;;;;;;3.59;73.20;102441.81;5052159;28;20036;-46
2021/04/16 04:02:56;;;;;;;5.22;1.35;;;;;;;3.56;74.27;102451.88;5051376;28;20513;-47
2021/04/16 04:05:22;;;;;;;3.85;1.95;;;;;;;3.64;73.40;102450.13;5059988;28;20032;-47
2021/04/16 04:07:47;;;;;;;8.15;1.50;;;;;;;3.63;73.56;102447.63;5053414;28;20094;-46
2021/04/16 04:10:14;;;;;;;5.35;2.00;;;;;;;3.57;73.47;102437.66;5058915;28;20047;-46
2021/04/16 04:12:39;;;;;;;3.55;1.00;;;;;;;3.58;73.96;102447.25;5051917;28;20941;-48
2021/04/16 04:15:06;;;;;;;5.00;1.20;;;;;;;3.62;73.41;102448.63;5054805;28;20115;-46
2021/04/16 04:17:35;;;;;;;7.28;1.50;;;;;;;3.63;73.31;102445.81;5053375;28;20540;-46
2021/04/16 04:20:05;;;;;;;3.85;1.20;;;;;;;3.68;73.13;102450.63;5058717;28;20036;-46
2021/04/16 04:22:30;;;;;;;7.22;1.50;;;;;;;3.72;72.77;102443.16;5051228;28;20557;-46
2021/04/16 04:24:56;;;;;;;1.92;0.93;;;;;;;3.73;72.79;102450.94;5055703;28;20028;-46
2021/04/16 04:27:21;;;;;;;4.63;1.83;;;;;;;3.79;72.61;102450.31;5055729;28;20487;-47
2021/04/16 04:29:47;;;;;;;7.18;2.60;;;;;;;3.78;72.97;102453.16;5054723;28;20056;-46
2021/04/16 04:32:13;;;;;;;12.13;3.03;;;;;;;3.78;72.89;102447.84;5051229;28;20470;-46
2021/04/16 04:34:39;;;;;;;6.97;2.72;;;;;;;3.82;72.90;102457.97;5052050;28;20074;-46
2021/04/16 04:37:07;;;;;;;4.53;1.75;;;;;;;3.87;72.59;102454.81;5054794;28;20032;-47
2021/04/16 04:39:36;;;;;;;4.43;1.63;;;;;;;3.91;72.52;102454.31;5053847;28;20034;-46
2021/04/16 04:42:04;;;;;;;4.60;1.45;;;;;;;3.94;72.53;102453.97;5050869;28;20028;-46
2021/04/16 04:44:30;;;;;;;6.13;1.27;;;;;;;3.99;72.31;102465.97;5048911;28;20032;-48
2021/04/16 04:46:55;;;;;;;5.70;1.73;;;;;;;3.98;72.53;102456.34;5055090;28;20383;-46
2021/04/16 04:49:21;;;;;;;7.43;1.40;;;;;;;4.01;72.69;102461.31;5053205;28;20189;-46
2021/04/16 04:51:49;;;;;;;6.70;2.08;;;;;;;3.95;73.03;102462.81;5054827;28;20055;-46
2021/04/16 04:54:16;;;;;;;3.67;1.40;;;;;;;4.01;72.62;102461.31;5054734;28;20668;-46
2021/04/16 04:56:41;;;;;;;5.05;1.77;;;;;;;4.06;72.50;102461.66;5060298;28;20391;-46
2021/04/16 04:59:07;;;;;;;6.72;1.80;;;;;;;4.07;72.90;102461.47;5057292;28;20037;-47
2021/04/16 05:01:33;;;;;;;5.22;1.60;;;;;;;4.09;72.77;102462.13;5057115;28;20564;-47
2021/04/16 05:03:59;;;;;;;4.05;1.33;;;;;;;4.11;72.54;102462.81;5059153;28;20024;-47
2021/04/16 05:06:25;;;;;;;5.72;2.20;;;;;;;4.17;72.49;102464.81;5057605;28;20363;-46
2021/04/16 05:08:51;;;;;;;9.10;1.58;;;;;;;4.14;72.64;102467.81;5017836;23;20038;-78
2021/04/16 05:11:17;;;;;;;5.00;1.20;;;;;;;4.20;72.80;102475.09;4999525;28;20096;-78
2021/04/16 05:13:43;;;;;;;6.90;1.73;;;;;;;4.28;72.11;102471.63;4985024;28;20030;-78
2021/04/16 05:16:08;;;;;;;5.85;1.38;;;;;;;4.26;72.28;102463.00;4985100;28;20036;-79
2021/04/16 05:18:36;;;;;;;5.95;1.60;;;;;;;4.35;72.00;102469.97;4986816;28;20029;-78
2021/04/16 05:21:04;;;;;;;4.55;1.60;;;;;;;4.32;72.53;102466.84;4981878;28;20084;-78
2021/04/16 05:23:30;;;;;;;5.32;1.30;;;;;;;4.33;72.45;102468.50;4978884;28;20021;-77
2021/04/16 05:25:55;;;;;;;4.53;1.30;;;;;;;4.46;71.73;102469.63;4985654;28;20030;-78
2021/04/16 05:28:21;;;;;;;5.72;1.92;;;;;;;4.52;71.35;102463.69;4981254;28;20064;-78
2021/04/16 05:30:46;;;;;;;4.65;1.67;;;;;;;4.51;71.66;102471.81;4979206;28;20023;-77
2021/04/16 05:33:12;;;;;;;4.95;1.45;;;;;;;4.54;71.62;102474.13;5007292;28;20124;-77
2021/04/16 05:35:37;;;;;;;7.57;2.08;;;;;;;4.59;71.51;102468.31;5004544;28;20096;-78
2021/04/16 05:38:03;;;;;;;8.80;1.88;;;;;;;4.62;71.64;102473.28;5002426;28;20030;-77
2021/04/16 05:40:29;;;;;;;5.50;1.50;;;;;;;4.66;71.44;102469.31;4987717;28;20036;-78
2021/04/16 05:42:55;;;;;;;5.35;1.90;;;;;;;4.75;71.18;102473.63;4983371;28;20038;-77
2021/04/16 05:45:22;;;;;;;4.25;1.33;;;;;;;4.80;70.97;102474.78;4983334;28;20105;-78
2021/04/16 05:47:48;;;;;;;7.50;1.60;;;;;;;4.78;71.27;102473.28;4989739;28;20133;-78
2021/04/16 05:50:15;;;;;;;6.22;1.85;;;;;;;4.80;71.36;102476.59;4989539;28;20033;-78
2021/04/16 05:52:40;;;;;;;9.63;2.00;;;;;;;4.80;71.58;102474.78;4989733;28;20038;-79
2021/04/16 05:55:06;;;;;;;9.05;2.00;;;;;;;4.83;71.46;102478.91;4986980;28;20094;-80
2021/04/16 05:57:32;;;;;;;8.88;2.42;;;;;;;4.82;71.84;102474.59;4985891;28;20034;-81
2021/04/16 05:59:58;;;;;;;4.25;1.85;;;;;;;4.89;71.33;102483.56;4981569;28;20036;-80
2021/04/16 06:02:33;;;;;;;4.95;1.75;;;;;;;4.93;71.23;102476.91;4988170;28;20022;-80
2021/04/16 06:05:01;;;;;;;4.85;2.15;;;;;;;4.90;71.16;102481.75;4990468;28;20062;-81
2021/04/16 06:07:27;;;;;;;5.82;2.22;;;;;;;4.92;71.46;102485.88;5005698;28;20022;-80
2021/04/16 06:09:55;;;;;;;7.88;2.13;;;;;;;4.99;70.75;102475.41;4990232;28;20116;-81
2021/04/16 06:12:21;;;;;;;6.95;1.73;;;;;;;5.05;70.79;102475.56;4998876;28;20089;-82
2021/04/16 06:14:47;;;;;;;6.68;1.80;;;;;;;5.01;71.16;102481.38;4976205;28;20026;-80
2021/04/16 06:17:16;;;;;;;9.88;2.17;;;;;;;5.09;71.04;102482.22;4985569;28;20385;-79
2021/04/16 06:19:43;;;;;;;5.95;1.80;;;;;;;5.12;71.12;102489.84;5004140;28;20061;-81
2021/04/16 06:22:10;;;;;;;9.00;2.17;;;;;;;5.22;70.55;102484.34;4991434;28;20025;-81
2021/04/16 06:24:35;;;;;;;4.38;1.80;;;;;;;5.22;71.05;102483.50;4985463;28;20033;-79
2021/04/16 06:27:06;;;;;;;5.40;1.70;;;;;;;5.26;70.62;102474.19;5001437;28;20405;-80
2021/04/16 06:29:32;;;;;;;5.75;1.50;;;;;;;5.30;70.59;102478.16;5002783;28;20089;-77
2021/04/16 06:31:58;;;;;;;5.55;1.48;;;;;;;5.31;70.33;102478.00;4975951;28;20441;-82
2021/04/16 06:34:24;;;;;;;4.97;1.45;;;;;;;5.35;70.54;102475.81;5000597;28;20022;-72
2021/04/16 06:36:50;;;;;;;7.88;1.52;;;;;;;5.44;69.73;102480.13;4999356;28;20398;-78
2021/04/16 06:39:16;;;;;;;4.07;1.42;;;;;;;5.49;69.94;102477.75;5003715;28;20045;-78
2021/04/16 06:41:46;;;;;;;3.70;1.80;;;;;;;5.45;70.18;102485.25;5003411;28;20037;-78
2021/04/16 06:44:16;;;;;;;8.27;1.77;;;;;;;5.49;69.66;102484.91;4984551;28;20092;-78
2021/04/16 06:46:49;;;;;;;5.72;1.40;;;;;;;5.51;69.96;102481.06;4988143;28;20104;-78
2021/04/16 06:49:23;;;;;;;6.20;1.45;;;;;;;5.61;69.48;102483.53;5004094;28;20041;-77
2021/04/16 06:52:24;;;;;;;5.40;1.85;;;;;;;5.61;69.17;102487.03;4997238;28;20595;-78
2021/04/16 06:54:50;;;;;;;4.13;1.38;;;;;;;5.79;68.47;102483.28;4997057;28;20034;-78
2021/04/16 06:57:42;;;;;;;6.28;1.50;;;;;;;5.81;68.85;102487.44;4981961;28;20486;-77
2021/04/16 07:00:51;;;;;;;5.18;1.83;;;;;;;5.86;68.44;102494.88;4978230;28;20072;-78
2021/04/16 07:03:24;;;;;;;7.53;1.63;;;;;;;6.06;67.74;102491.63;4957718;28;20045;-77
2021/04/16 07:05:54;;;;;;;5.32;1.70;;;;;;;6.27;66.89;102498.97;5003979;28;20029;-77
2021/04/16 07:08:39;;;;;;;7.55;1.83;;;;;;;6.32;67.11;102496.63;4983949;28;20050;-77
2021/04/16 07:11:25;;;;;;;6.30;1.60;;;;;;;6.44;66.41;102505.03;5001721;28;20484;-78
2021/04/16 07:13:50;;;;;;;;;;;;;;;6.43;66.42;102491.88;5000450;28;20025;-77
2021/04/16 07:16:19;;;;;;;6.03;1.38;;;;;;;6.79;65.37;102492.91;4985631;28;19917;-77
2021/04/16 07:18:48;;;;;;;5.60;1.45;;;;;;;6.97;64.71;102495.25;4995454;28;20030;-78
2021/04/16 07:21:17;;;;;;;6.88;2.10;;;;;;;7.06;64.18;102496.00;5005914;28;20025;-78
2021/04/16 07:24:02;;;;;;;7.95;1.52;;;;;;;7.06;63.65;102488.00;4986031;28;20025;-78
2021/04/16 07:26:42;;;;;;;3.67;1.48;;;;;;;7.16;63.23;102492.06;5006600;28;20034;-78
2021/04/16 07:29:10;;;;;;;6.60;1.25;;;;;;;7.34;62.96;102485.53;4999117;28;20073;-77
2021/04/16 07:31:51;;;;;;;5.68;1.50;;;;;;;7.51;62.37;102493.16;5004775;28;20045;-78
2021/04/16 07:34:29;;;;;;;7.30;1.27;;;;;;;7.56;63.21;102493.44;4979893;28;20025;-77
2021/04/16 07:37:13;;;;;;;5.70;1.50;;;;;;;7.64;62.43;102491.69;4982589;28;20477;-78
2021/04/16 07:39:47;;;;;;;5.72;1.50;;;;;;;7.68;61.66;102488.44;4996748;28;20022;-78
2021/04/16 07:42:22;;;;;;;7.97;1.38;;;;;;;7.59;61.02;102492.25;4987380;28;20038;-78
2021/04/16 07:45:15;;;;;;;3.17;1.33;;;;;;;7.71;61.57;102493.41;4998052;28;20505;-78
2021/04/16 07:47:40;;;;;;;7.47;1.30;;;;;;;7.82;61.21;102494.78;4991820;28;20776;-78
2021/04/16 07:50:41;;;;;;;6.47;1.75;;;;;;;7.68;60.39;102482.28;5000525;28;20068;-78
2021/04/16 07:53:42;;;;;;;3.60;1.40;;;;;;;7.92;59.78;102492.66;5002162;28;20034;-78
2021/04/16 07:56:19;;;;;;;4.40;1.20;;;;;;;8.05;58.89;102495.44;4985910;28;20041;-78
2021/04/16 07:59:05;;;;;;;5.40;1.70;;;;;;;8.14;58.91;102494.34;4985890;28;21562;-78
2021/04/16 08:01:36;;;;;;;5.20;1.45;;;;;;;8.05;57.96;102490.13;4998868;28;20036;-79
2021/04/16 08:04:06;;;;;;;5.90;1.35;;;;;;;8.21;58.66;102493.56;4975930;28;20069;-79
2021/04/16 08:06:39;;;;;;;5.55;1.30;;;;;;;8.34;58.52;102504.44;4994268;28;20244;-78
2021/04/16 08:09:24;;;;;;;10.32;1.95;;;;;;;8.30;58.36;102500.47;4994881;28;20049;-79
2021/04/16 08:11:50;;;;;;;2.28;1.10;;;;;;;8.43;57.33;102496.06;4996171;28;20113;-79
2021/04/16 08:14:26;;;;;;;4.68;1.33;;;;;;;8.48;57.40;102501.69;4992870;28;20036;-78
2021/04/16 08:16:57;;;;;;;3.72;1.13;;;;;;;8.58;56.74;102501.34;4991349;28;20092;-78
2021/04/16 08:19:32;;;;;;;4.38;1.73;;;;;;;8.55;56.64;102496.41;4980905;28;20026;-78
2021/04/16 08:22:14;;;;;;;7.72;1.60;;;;;;;8.70;56.75;102499.84;4973218;28;20397;-77
2021/04/16 08:24:54;;;;;;;3.05;1.17;;;;;;;8.94;56.14;102500.41;4991757;28;22217;-78
2021/04/16 08:27:44;;;;;;;4.90;1.50;;;;;;;8.94;54.75;102495.06;4989721;28;20127;-77
2021/04/16 08:30:27;;;;;;;8.60;1.27;;;;;;;8.72;54.34;102503.13;4991528;28;20036;-77
2021/04/16 08:33:10;;;;;;;12.15;1.67;;;;;;;8.89;55.09;102492.16;4994647;28;20117;-77
2021/04/16 08:36:13;;;;;;;5.68;1.27;;;;;;;9.15;54.91;102495.00;4982431;28;20040;-77
2021/04/16 08:38:49;;;;;;;3.05;1.05;;;;;;;9.29;53.86;102494.06;4923548;28;20026;-77
2021/04/16 08:41:15;;;;;;;8.43;1.55;;;;;;;9.51;54.16;102491.31;4925909;28;20027;-77
2021/04/16 08:43:44;;;;;;;4.55;1.20;;;;;;;9.68;53.16;102493.44;4951077;28;20041;-79
2021/04/16 08:46:32;;;;;;;3.97;0.95;;;;;;;9.81;52.91;102495.34;5002851;28;20057;-78
2021/04/16 08:49:08;;;;;;;4.57;1.65;;;;;;;10.12;52.98;102502.06;4970196;28;20034;-78
2021/04/16 08:51:37;;;;;;;4.82;1.45;;;;;;;10.43;52.15;102494.31;4982376;28;20034;-78
2021/04/16 08:54:25;;;;;;;5.82;1.45;;;;;;;10.45;51.92;102494.94;4979896;28;20060;-78
2021/04/16 08:57:19;;;;;;;7.50;1.45;;;;;;;9.91;52.50;102490.47;4992545;28;20564;-77
2021/04/16 09:00:09;;;;;;;4.00;1.63;;;;;;;9.88;52.14;102488.19;4962892;28;20128;-77
2021/04/16 09:02:56;;;;;;;4.40;1.60;;;;;;;9.52;51.44;102483.09;4974205;28;20050;-78
2021/04/16 09:05:54;;;;;;;5.88;1.48;;;;;;;9.79;53.17;102486.72;4990457;28;20021;-78
2021/04/16 09:08:25;;;;;;;4.38;1.40;;;;;;;9.97;52.77;102497.69;4982490;28;20048;-78
2021/04/16 09:10:58;;;;;;;6.32;1.10;;;;;;;10.35;52.37;102491.81;4988887;28;20022;-78
2021/04/16 09:13:33;;;;;;;5.85;1.50;;;;;;;10.45;52.27;102489.59;4993099;28;20602;-78
2021/04/16 09:16:17;;;;;;;7.50;1.50;;;;;;;10.45;51.90;102489.59;4994948;28;20029;-78
2021/04/16 09:18:49;;;;;;;5.97;1.70;;;;;;;10.74;51.11;102482.16;4972588;28;20254;-78
2021/04/16 09:21:25;;;;;;;4.85;1.80;;;;;;;10.47;50.23;102476.81;4972082;28;20101;-79
2021/04/16 09:24:09;;;;;;;5.95;1.30;;;;;;;10.71;50.96;102488.75;4991167;28;20080;-78
2021/04/16 09:26:43;;;;;;;5.65;1.95;;;;;;;10.39;50.96;102493.06;4969978;28;20026;-78
2021/04/16 09:29:25;;;;;;;4.65;1.95;;;;;;;10.62;51.73;102481.16;4991902;28;20147;-78
2021/04/16 09:32:03;;;;;;;3.78;1.17;;;;;;;10.51;50.95;102487.94;4989154;28;20484;-78
2021/04/16 09:34:43;;;;;;;6.97;1.33;;;;;;;10.47;49.27;102484.84;4991974;28;20037;-78
2021/04/16 09:37:14;;;;;;;4.68;1.17;;;;;;;10.19;50.72;102495.69;4989611;28;20065;-78
2021/04/16 09:39:42;;;;;;;5.15;1.52;;;;;;;10.45;50.76;102494.94;4990569;28;20061;-78
2021/04/16 09:42:31;;;;;;;4.68;1.30;;;;;;;10.62;49.90;102489.19;4974783;28;20038;-78
2021/04/16 09:44:59;;;;;;;7.82;1.58;;;;;;;11.27;50.04;102484.75;4993621;28;20047;-78
2021/04/16 09:47:41;;;;;;;3.90;1.20;;;;;;;11.55;48.59;102471.91;4985438;28;20475;-78
2021/04/16 09:50:31;;;;;;;10.20;1.55;;;;;;;11.26;48.66;102483.94;4967500;28;20026;-76
2021/04/16 09:53:19;;;;;;;6.70;1.58;;;;;;;11.16;48.32;102483.56;4972756;28;20038;-76
2021/04/16 09:56:00;;;;;;;3.75;1.30;;;;;;;11.52;48.26;102479.56;4966357;28;20041;-76
2021/04/16 09:58:33;;;;;;;5.53;1.40;;;;;;;11.72;47.46;102475.75;4984832;28;20039;-77
2021/04/16 10:01:01;;;;;;;6.25;1.20;;;;;;;12.04;46.73;102473.97;4975430;28;20385;-77
2021/04/16 10:03:36;;;;;;;4.93;1.20;;;;;;;12.04;45.97;102473.16;4984206;28;20515;-76
2021/04/16 10:06:29;;;;;;;6.15;1.42;;;;;;;11.79;45.41;102471.19;4986671;28;20038;-76
2021/04/16 10:09:07;;;;;;;4.82;1.25;;;;;;;11.72;46.01;102470.38;4989623;28;20129;-76
2021/04/16 10:11:33;;;;;;;5.20;1.85;;;;;;;12.01;46.14;102471.69;4989104;28;20552;-78
2021/04/16 10:14:25;;;;;;;6.15;1.40;;;;;;;11.57;45.98;102467.13;4988855;28;20120;-78
2021/04/16 10:16:57;;;;;;;4.55;1.30;;;;;;;11.78;45.41;102468.69;4993750;28;20022;-78
2021/04/16 10:19:27;;;;;;;5.60;1.40;;;;;;;11.76;45.55;102486.88;4993979;28;20134;-78
2021/04/16 10:21:53;;;;;;;6.28;1.35;;;;;;;12.14;45.89;102478.84;4989794;28;20022;-78
2021/04/16 12:39:34;;;;;;;5.47;1.35;;;;;;;12.48;42.25;102474.06;5000287;28;20503;-80
2021/04/16 12:42:00;;;;;;;1.90;1.38;;;;;;;12.69;41.01;102490.66;4985088;28;20053;-80
2021/04/16 12:44:35;;;;;;;8.15;1.98;;;;;;;12.96;40.58;102477.81;5004454;28;20032;-80
2021/04/16 12:47:06;;;;;;;6.78;1.35;;;;;;;13.30;39.89;102484.53;4980463;28;20030;-81
2021/04/16 12:49:32;;;;;;;4.53;1.10;;;;;;;13.77;39.07;102473.19;5001343;28;20065;-81
2021/04/16 12:51:58;;;;;;;4.18;1.77;;;;;;;14.30;38.31;102472.44;4986947;28;20033;-81
2021/04/16 12:54:23;;;;;;;3.92;1.50;;;;;;;14.61;37.68;102472.19;4999059;28;20042;-80
2021/04/16 12:56:49;;;;;;;5.70;1.40;;;;;;;14.16;38.57;102469.09;4989116;28;20037;-80
2021/04/16 12:59:19;;;;;;;6.47;1.50;;;;;;;14.19;37.58;102463.28;4980653;28;20546;-80
2021/04/16 13:01:47;;;;;;;5.22;1.80;;;;;;;14.05;38.08;102464.53;4999092;28;20022;-80
2021/04/16 13:04:15;;;;;;;4.55;1.30;;;;;;;13.84;38.12;102465.84;4995970;28;20023;-80
2021/04/16 13:06:44;;;;;;;8.43;1.65;;;;;;;13.48;37.86;102455.94;4983227;28;20659;-85
2021/04/16 13:09:12;;;;;;;5.90;1.20;;;;;;;13.45;38.69;102459.06;4980387;28;20084;-80
2021/04/16 13:11:37;;;;;;;4.20;1.30;;;;;;;13.01;39.25;102453.72;5002594;28;20037;-80
2021/04/16 13:14:03;;;;;;;7.20;1.60;;;;;;;12.79;38.94;102455.19;4997946;28;20026;-81
2021/04/16 13:16:29;;;;;;;5.85;1.48;;;;;;;12.46;40.71;102454.66;4982295;28;20033;-80
2021/04/16 13:18:57;;;;;;;6.18;1.60;;;;;;;12.03;41.14;102444.63;4982130;28;21245;-80
2021/04/16 13:21:42;;;;;;;6.22;1.60;;;;;;;11.44;41.58;102457.25;4980420;28;20496;-80
2021/04/16 13:24:09;;;;;;;4.32;1.20;;;;;;;11.43;42.24;102455.63;4977897;28;20037;-80
2021/04/16 13:26:36;;;;;;;5.65;1.85;;;;;;;11.34;41.89;102454.22;4977805;28;20455;-80
2021/04/16 13:29:02;;;;;;;4.80;1.80;;;;;;;11.42;41.55;102447.78;4975468;28;20396;-80
2021/04/16 13:31:34;;;;;;;4.10;1.75;;;;;;;11.38;42.21;102446.56;4976311;28;20032;-80
2021/04/16 13:34:01;;;;;;;4.40;1.90;;;;;;;11.12;42.21;102448.25;4992796;28;20030;-80
2021/04/16 13:36:30;;;;;;;3.80;1.40;;;;;;;11.17;42.49;102442.28;4976094;28;20476;-80
2021/04/16 13:38:55;;;;;;;4.75;2.15;;;;;;;11.29;42.83;102439.75;4986855;28;20055;-79
2021/04/16 13:41:21;;;;;;;4.78;2.30;;;;;;;11.23;43.15;102432.56;4973300;28;20022;-82
2021/04/16 13:43:52;;;;;;;5.28;1.77;;;;;;;11.48;43.19;102437.00;4983299;28;20254;-82
2021/04/16 13:46:22;;;;;;;4.43;1.52;;;;;;;12.03;41.79;102440.09;4981983;28;20118;-82
2021/04/16 13:48:48;;;;;;;6.28;1.77;;;;;;;12.37;40.41;102446.03;4978323;28;20060;-83
2021/04/16 13:51:16;;;;;;;4.68;1.70;;;;;;;12.87;39.59;102437.94;4987658;28;20026;-83
2021/04/16 13:53:42;;;;;;;4.93;1.55;;;;;;;13.50;38.59;102435.00;4976381;28;20481;-82
2021/04/16 13:56:08;;;;;;;8.80;1.58;;;;;;;14.12;37.70;102436.41;4970891;28;20042;-83
2021/04/16 13:58:33;;;;;;;6.05;2.38;;;;;;;15.55;35.06;102426.16;4978147;28;20161;-82
2021/04/16 14:00:59;;;;;;;6.88;1.73;;;;;;;16.33;34.10;102420.84;4987218;28;20061;-83
2021/04/16 14:03:41;;;;;;;6.75;1.92;;;;;;;17.86;31.96;102419.38;4980085;28;20491;-82